Friday, January 18, 2019, 3:05 AM EST
Back to Local

KALB, Albany International Airport

Location: Latham, NY, United States Lat: 42.75
Local Time: 3:05 AM EST ( 8:05 GMT) Lon: -73.8
Time Zone: US/Eastern Elev: 285 ft

Show me the last for .
Show Decoded

2019-01-18 02:51 METAR KALB 180751Z 17008KT 2SM -SN FEW010 OVC024 M04/M08 A3016 RMK AO2 TWR VIS 2
                 1/2 SLP218 VIS 1 1/2V3 P0001 T10441078 =
2019-01-18 02:19 METAR KALB 180719Z 17010KT 2SM -SN OVC021 M04/M08 A3017 RMK AO2 P0001 T10441078
                 =
2019-01-18 01:51 METAR KALB 180651Z 16009KT 1 1/2SM -SN OVC015 M04/M08 A3019 RMK AO2 SLP226 VIS 1
                 1/4V2 P0002 T10441083 =
2019-01-18 01:42 METAR KALB 180642Z 16009KT 1 1/2SM -SN OVC017 M05/M08 A3019 RMK AO2 P0002
                 T10501083 =
2019-01-18 01:14 METAR KALB 180614Z 17009KT 2SM -SN OVC015 M05/M09 A3019 RMK AO2 P0001 T10501089
                 =
2019-01-18 00:51 METAR KALB 180551Z 16007KT 1 1/4SM -SN OVC014 M05/M09 A3020 RMK AO2 SLP231 VIS
                 1V1 1/2 P0001 60001 T10501089 11044 21067 57017 =
2019-01-18 00:37 METAR KALB 180537Z 16006KT 1 1/2SM -SN OVC015 M05/M09 A3020 RMK AO2 VIS 1V2
                 P0001 T10501094 =
2019-01-18 00:19 METAR KALB 180519Z 16006KT 2SM -SN OVC017 M06/M12 A3021 RMK AO2 P0000 T10561122
                 =
2019-01-17 23:58 METAR KALB 180458Z 00000KT 8SM -SN OVC025 M06/M16 A3022 =
2019-01-17 23:51 METAR KALB 180451Z 36003KT 10SM -SN OVC031 M06/M16 A3022 RMK AO2 SNB50 SLP239
                 PCPN VRY LGT P0000 T10611161 410441128 =
2019-01-17 22:51 METAR KALB 180351Z 00000KT 10SM SCT050 BKN120 OVC150 M07/M17 A3023 RMK AO2
                 SLP242 SHSN DSNT SE-SW-NW T10671167 =
2019-01-17 21:51 METAR KALB 180251Z 00000KT 10SM BKN110 OVC150 M07/M18 A3025 RMK AO2 SLP250
                 T10671183 58015 =
2019-01-17 20:51 METAR KALB 180151Z 00000KT 10SM BKN120 OVC150 M06/M19 A3027 RMK AO2 SLP254
                 T10611189 =
2019-01-17 19:51 METAR KALB 180051Z 00000KT 10SM FEW110 BKN140 OVC170 M06/M19 A3029 RMK AO2
                 SLP261 T10611194 =
2019-01-17 18:51 METAR KALB 172351Z 02003KT 10SM FEW110 SCT150 BKN170 BKN250 M06/M20 A3030 RMK
                 AO2 SLP265 T10611200 11044 21067 56009 =
2019-01-17 17:51 METAR KALB 172251Z 04004KT 10SM FEW110 BKN150 BKN250 M06/M21 A3030 RMK AO2
                 SLP266 T10611206 =
2019-01-17 16:51 METAR KALB 172151Z 00000KT 10SM FEW090 BKN110 BKN250 M06/M21 A3031 RMK AO2
                 SLP268 T10561211 =
2019-01-17 15:51 METAR KALB 172051Z 07003KT 10SM FEW110 FEW170 BKN250 M05/M20 A3032 RMK AO2
                 SLP274 T10501200 56021 =
2019-01-17 14:51 METAR KALB 171951Z 00000KT 10SM FEW120 FEW170 BKN250 M05/M21 A3034 RMK AO2
                 SLP279 T10501206 =
2019-01-17 13:51 METAR KALB 171851Z 06005KT 10SM FEW120 FEW170 BKN250 M06/M20 A3035 RMK AO2
                 SLP284 T10561200 =
2019-01-17 12:51 METAR KALB 171751Z 00000KT 10SM FEW120 SCT170 BKN250 M06/M19 A3039 RMK AO2
                 SLP294 T10611194 11061 21128 58025 =
2019-01-17 11:51 METAR KALB 171651Z 00000KT 10SM FEW120 SCT170 BKN250 M07/M19 A3042 RMK AO2
                 SLP304 T10671194 =
2019-01-17 10:51 METAR KALB 171551Z VRB03KT 10SM FEW160 FEW200 SCT250 M08/M19 A3045 RMK AO2
                 SLP317 T10831189 =
2019-01-17 09:51 METAR KALB 171451Z 00000KT 10SM FEW160 FEW250 M10/M19 A3046 RMK AO2 SLP319
                 T11001194 51016 =
2019-01-17 08:51 METAR KALB 171351Z 02003KT 10SM FEW140 FEW250 M11/M19 A3045 RMK AO2 SLP316
                 T11061194 =
2019-01-17 07:51 METAR KALB 171251Z 00000KT 10SM FEW140 FEW250 M12/M20 A3044 RMK AO2 SLP312
                 T11221200 =
2019-01-17 06:51 METAR KALB 171151Z 34005KT 10SM FEW250 M13/M20 A3041 RMK AO2 SLP303 T11281200
                 11067 21128 53015 =
2019-01-17 05:51 METAR KALB 171051Z 32006KT 10SM FEW250 M12/M19 A3039 RMK AO2 SLP294 T11171194 =
2019-01-17 04:51 METAR KALB 170951Z 31006KT 10SM CLR M11/M19 A3038 RMK AO2 SLP291 T11111194 =
2019-01-17 03:51 METAR KALB 170851Z 31008KT 10SM CLR M11/M19 A3037 RMK AO2 SLP287 T11061194 51027
                 =

Support USWX by starting your Amazon purchase here.